sensor_id;sensor_type;location;lat;lon;timestamp;temperature;humidity
11079;DHT22;5592;49.234;7.268;2023-04-05T00:00:53;-1.90;99.90
11079;DHT22;5592;49.234;7.268;2023-04-05T00:03:19;-2.00;99.90
11079;DHT22;5592;49.234;7.268;2023-04-05T00:05:45;-2.00;99.90
11079;DHT22;5592;49.234;7.268;2023-04-05T00:08:10;-2.10;99.90
11079;DHT22;5592;49.234;7.268;2023-04-05T00:10:42;-2.20;99.90
11079;DHT22;5592;49.234;7.268;2023-04-05T00:13:08;-2.20;99.90
11079;DHT22;5592;49.234;7.268;2023-04-05T00:15:33;-2.20;99.90
11079;DHT22;5592;49.234;7.268;2023-04-05T00:17:59;-2.20;99.90
11079;DHT22;5592;49.234;7.268;2023-04-05T00:20:28;-2.20;99.90
11079;DHT22;5592;49.234;7.268;2023-04-05T00:22:53;-2.10;99.90
11079;DHT22;5592;49.234;7.268;2023-04-05T00:25:19;-2.00;99.90
11079;DHT22;5592;49.234;7.268;2023-04-05T00:27:46;-2.00;99.90
11079;DHT22;5592;49.234;7.268;2023-04-05T00:30:12;-1.90;99.90
11079;DHT22;5592;49.234;7.268;2023-04-05T00:32:39;-1.90;99.90
11079;DHT22;5592;49.234;7.268;2023-04-05T00:35:07;-2.00;99.90
11079;DHT22;5592;49.234;7.268;2023-04-05T00:37:33;-2.00;99.90
11079;DHT22;5592;49.234;7.268;2023-04-05T00:39:59;-2.00;99.90
11079;DHT22;5592;49.234;7.268;2023-04-05T00:42:24;-2.00;99.90
11079;DHT22;5592;49.234;7.268;2023-04-05T00:44:50;-2.00;99.90
11079;DHT22;5592;49.234;7.268;2023-04-05T00:47:15;-2.00;99.90
11079;DHT22;5592;49.234;7.268;2023-04-05T00:49:41;-2.10;99.90
11079;DHT22;5592;49.234;7.268;2023-04-05T00:52:07;-2.20;99.90
11079;DHT22;5592;49.234;7.268;2023-04-05T00:54:33;-2.30;99.90
11079;DHT22;5592;49.234;7.268;2023-04-05T00:56:59;-2.30;99.90
11079;DHT22;5592;49.234;7.268;2023-04-05T00:59:25;-2.20;99.90
11079;DHT22;5592;49.234;7.268;2023-04-05T01:04:30;-2.20;99.90
11079;DHT22;5592;49.234;7.268;2023-04-05T01:09:44;-2.40;99.90
11079;DHT22;5592;49.234;7.268;2023-04-05T01:12:17;-2.50;99.90
11079;DHT22;5592;49.234;7.268;2023-04-05T01:14:51;-2.60;99.90
11079;DHT22;5592;49.234;7.268;2023-04-05T01:17:18;-2.60;99.90
11079;DHT22;5592;49.234;7.268;2023-04-05T01:19:48;-2.60;99.90
11079;DHT22;5592;49.234;7.268;2023-04-05T01:25:18;-2.70;99.90
11079;DHT22;5592;49.234;7.268;2023-04-05T01:30:21;-2.90;99.90
11079;DHT22;5592;49.234;7.268;2023-04-05T01:33:01;-2.90;99.90
11079;DHT22;5592;49.234;7.268;2023-04-05T01:35:49;-2.90;99.90
11079;DHT22;5592;49.234;7.268;2023-04-05T01:38:19;-2.90;99.90
11079;DHT22;5592;49.234;7.268;2023-04-05T01:40:46;-2.90;99.90
11079;DHT22;5592;49.234;7.268;2023-04-05T01:43:13;-2.80;99.90
11079;DHT22;5592;49.234;7.268;2023-04-05T01:45:40;-2.80;99.90
11079;DHT22;5592;49.234;7.268;2023-04-05T01:48:06;-2.90;99.90
11079;DHT22;5592;49.234;7.268;2023-04-05T01:50:32;-2.90;99.90
11079;DHT22;5592;49.234;7.268;2023-04-05T01:52:57;-2.90;99.90
11079;DHT22;5592;49.234;7.268;2023-04-05T01:55:23;-2.90;99.90
11079;DHT22;5592;49.234;7.268;2023-04-05T01:57:48;-2.90;99.90
11079;DHT22;5592;49.234;7.268;2023-04-05T02:00:14;-3.00;99.90
11079;DHT22;5592;49.234;7.268;2023-04-05T02:02:40;-3.00;99.90
11079;DHT22;5592;49.234;7.268;2023-04-05T02:05:06;-2.90;99.90
11079;DHT22;5592;49.234;7.268;2023-04-05T02:07:32;-2.80;99.90
11079;DHT22;5592;49.234;7.268;2023-04-05T02:09:57;-2.70;99.90
11079;DHT22;5592;49.234;7.268;2023-04-05T02:12:23;-2.70;99.90
11079;DHT22;5592;49.234;7.268;2023-04-05T02:14:48;-2.70;99.90
11079;DHT22;5592;49.234;7.268;2023-04-05T02:17:15;-2.80;99.90
11079;DHT22;5592;49.234;7.268;2023-04-05T02:19:42;-2.90;99.90
11079;DHT22;5592;49.234;7.268;2023-04-05T02:22:10;-3.00;99.90
11079;DHT22;5592;49.234;7.268;2023-04-05T02:24:36;-3.10;99.90
11079;DHT22;5592;49.234;7.268;2023-04-05T02:27:02;-3.20;99.90
11079;DHT22;5592;49.234;7.268;2023-04-05T02:29:28;-3.20;99.90
11079;DHT22;5592;49.234;7.268;2023-04-05T02:31:54;-3.30;99.90
11079;DHT22;5592;49.234;7.268;2023-04-05T02:34:19;-3.40;99.90
11079;DHT22;5592;49.234;7.268;2023-04-05T02:36:50;-3.40;99.90
11079;DHT22;5592;49.234;7.268;2023-04-05T02:39:16;-3.50;99.90
11079;DHT22;5592;49.234;7.268;2023-04-05T02:41:42;-3.50;99.90
11079;DHT22;5592;49.234;7.268;2023-04-05T02:44:08;-3.50;99.90
11079;DHT22;5592;49.234;7.268;2023-04-05T02:46:33;-3.50;99.90
11079;DHT22;5592;49.234;7.268;2023-04-05T02:48:59;-3.50;99.90
11079;DHT22;5592;49.234;7.268;2023-04-05T02:51:24;-3.50;99.90
11079;DHT22;5592;49.234;7.268;2023-04-05T02:53:51;-3.60;99.90
11079;DHT22;5592;49.234;7.268;2023-04-05T02:56:17;-3.60;99.90
11079;DHT22;5592;49.234;7.268;2023-04-05T02:58:43;-3.70;99.90
11079;DHT22;5592;49.234;7.268;2023-04-05T03:01:09;-3.70;99.90
11079;DHT22;5592;49.234;7.268;2023-04-05T03:03:34;-3.70;99.90
11079;DHT22;5592;49.234;7.268;2023-04-05T03:06:03;-3.70;99.90
11079;DHT22;5592;49.234;7.268;2023-04-05T03:08:38;-3.70;99.90
11079;DHT22;5592;49.234;7.268;2023-04-05T03:11:08;-3.60;99.90
11079;DHT22;5592;49.234;7.268;2023-04-05T03:13:34;-3.50;99.90
11079;DHT22;5592;49.234;7.268;2023-04-05T03:16:00;-3.40;99.90
11079;DHT22;5592;49.234;7.268;2023-04-05T03:18:26;-3.30;99.90
11079;DHT22;5592;49.234;7.268;2023-04-05T03:20:54;-3.20;99.90
11079;DHT22;5592;49.234;7.268;2023-04-05T03:23:27;-3.10;99.90
11079;DHT22;5592;49.234;7.268;2023-04-05T03:28:23;-3.10;99.90
11079;DHT22;5592;49.234;7.268;2023-04-05T03:30:48;-3.10;99.90
11079;DHT22;5592;49.234;7.268;2023-04-05T03:33:14;-3.10;99.90
11079;DHT22;5592;49.234;7.268;2023-04-05T03:35:40;-3.10;99.90
11079;DHT22;5592;49.234;7.268;2023-04-05T03:38:05;-3.20;99.90
11079;DHT22;5592;49.234;7.268;2023-04-05T03:40:31;-3.20;99.90
11079;DHT22;5592;49.234;7.268;2023-04-05T03:42:57;-3.20;99.90
11079;DHT22;5592;49.234;7.268;2023-04-05T03:45:22;-3.20;99.90
11079;DHT22;5592;49.234;7.268;2023-04-05T03:47:48;-3.20;99.90
11079;DHT22;5592;49.234;7.268;2023-04-05T03:50:14;-3.20;99.90
11079;DHT22;5592;49.234;7.268;2023-04-05T03:52:40;-3.30;99.90
11079;DHT22;5592;49.234;7.268;2023-04-05T03:55:06;-3.30;99.90
11079;DHT22;5592;49.234;7.268;2023-04-05T03:57:32;-3.30;99.90
11079;DHT22;5592;49.234;7.268;2023-04-05T03:59:58;-3.40;99.90
11079;DHT22;5592;49.234;7.268;2023-04-05T04:02:24;-3.50;99.90
11079;DHT22;5592;49.234;7.268;2023-04-05T04:04:50;-3.60;99.90
11079;DHT22;5592;49.234;7.268;2023-04-05T04:07:15;-3.70;99.90
11079;DHT22;5592;49.234;7.268;2023-04-05T04:09:41;-3.70;99.90
11079;DHT22;5592;49.234;7.268;2023-04-05T04:12:07;-3.80;99.90
11079;DHT22;5592;49.234;7.268;2023-04-05T04:14:35;-3.80;99.90
11079;DHT22;5592;49.234;7.268;2023-04-05T04:17:01;-3.80;99.90
11079;DHT22;5592;49.234;7.268;2023-04-05T04:19:27;-3.80;99.90
11079;DHT22;5592;49.234;7.268;2023-04-05T04:21:53;-3.90;99.90
11079;DHT22;5592;49.234;7.268;2023-04-05T04:24:20;-3.80;99.90
11079;DHT22;5592;49.234;7.268;2023-04-05T04:26:46;-3.80;99.90
11079;DHT22;5592;49.234;7.268;2023-04-05T04:29:12;-3.70;99.90
11079;DHT22;5592;49.234;7.268;2023-04-05T04:31:41;-3.70;99.90
11079;DHT22;5592;49.234;7.268;2023-04-05T04:34:10;-3.80;99.90
11079;DHT22;5592;49.234;7.268;2023-04-05T04:36:36;-3.70;99.90
11079;DHT22;5592;49.234;7.268;2023-04-05T04:39:03;-3.70;99.90
11079;DHT22;5592;49.234;7.268;2023-04-05T04:41:32;-3.80;99.90
11079;DHT22;5592;49.234;7.268;2023-04-05T04:43:58;-3.90;99.90
11079;DHT22;5592;49.234;7.268;2023-04-05T04:46:28;-3.90;99.90
11079;DHT22;5592;49.234;7.268;2023-04-05T04:48:55;-4.00;99.90
11079;DHT22;5592;49.234;7.268;2023-04-05T04:51:22;-4.00;99.90
11079;DHT22;5592;49.234;7.268;2023-04-05T04:53:47;-3.90;99.90
11079;DHT22;5592;49.234;7.268;2023-04-05T04:56:13;-3.70;99.90
11079;DHT22;5592;49.234;7.268;2023-04-05T04:58:38;-3.70;99.90
11079;DHT22;5592;49.234;7.268;2023-04-05T05:01:07;-3.70;99.90
11079;DHT22;5592;49.234;7.268;2023-04-05T05:03:34;-3.80;99.90
11079;DHT22;5592;49.234;7.268;2023-04-05T05:06:03;-3.90;99.90
11079;DHT22;5592;49.234;7.268;2023-04-05T05:08:29;-3.90;99.90
11079;DHT22;5592;49.234;7.268;2023-04-05T05:10:55;-4.00;99.90
11079;DHT22;5592;49.234;7.268;2023-04-05T05:13:21;-4.00;99.90
11079;DHT22;5592;49.234;7.268;2023-04-05T05:15:46;-4.00;99.90
11079;DHT22;5592;49.234;7.268;2023-04-05T05:18:13;-4.00;99.90
11079;DHT22;5592;49.234;7.268;2023-04-05T05:20:38;-4.00;99.90
11079;DHT22;5592;49.234;7.268;2023-04-05T05:23:05;-3.90;99.90
11079;DHT22;5592;49.234;7.268;2023-04-05T05:25:31;-3.80;99.90
11079;DHT22;5592;49.234;7.268;2023-04-05T05:27:56;-3.70;99.90
11079;DHT22;5592;49.234;7.268;2023-04-05T05:30:22;-3.40;99.90
11079;DHT22;5592;49.234;7.268;2023-04-05T05:32:47;-2.80;99.90
11079;DHT22;5592;49.234;7.268;2023-04-05T05:35:13;-2.30;99.90
11079;DHT22;5592;49.234;7.268;2023-04-05T05:37:39;-2.00;99.90
11079;DHT22;5592;49.234;7.268;2023-04-05T05:40:05;-1.60;99.90
11079;DHT22;5592;49.234;7.268;2023-04-05T05:42:31;-1.30;99.90
11079;DHT22;5592;49.234;7.268;2023-04-05T05:45:01;-1.00;99.90
11079;DHT22;5592;49.234;7.268;2023-04-05T05:47:27;-0.80;99.90
11079;DHT22;5592;49.234;7.268;2023-04-05T05:49:52;-0.70;99.90
11079;DHT22;5592;49.234;7.268;2023-04-05T05:52:18;-0.70;99.90
11079;DHT22;5592;49.234;7.268;2023-04-05T05:54:44;-0.50;99.90
11079;DHT22;5592;49.234;7.268;2023-04-05T05:57:09;-0.30;99.90
11079;DHT22;5592;49.234;7.268;2023-04-05T05:59:35;0.00;99.90
11079;DHT22;5592;49.234;7.268;2023-04-05T06:02:00;0.40;99.90
11079;DHT22;5592;49.234;7.268;2023-04-05T06:04:26;0.70;99.90
11079;DHT22;5592;49.234;7.268;2023-04-05T06:06:53;1.00;99.90
11079;DHT22;5592;49.234;7.268;2023-04-05T06:09:19;1.30;99.90
11079;DHT22;5592;49.234;7.268;2023-04-05T06:11:44;1.60;99.90
11079;DHT22;5592;49.234;7.268;2023-04-05T06:14:10;1.90;99.90
11079;DHT22;5592;49.234;7.268;2023-04-05T06:16:35;2.40;99.90
11079;DHT22;5592;49.234;7.268;2023-04-05T06:19:01;2.70;99.90
11079;DHT22;5592;49.234;7.268;2023-04-05T06:21:26;3.10;99.90
11079;DHT22;5592;49.234;7.268;2023-04-05T06:23:52;3.60;99.90
11079;DHT22;5592;49.234;7.268;2023-04-05T06:26:19;4.40;99.90
11079;DHT22;5592;49.234;7.268;2023-04-05T06:28:46;5.70;99.90
11079;DHT22;5592;49.234;7.268;2023-04-05T06:31:15;7.10;99.90
11079;DHT22;5592;49.234;7.268;2023-04-05T06:33:42;8.40;99.90
11079;DHT22;5592;49.234;7.268;2023-04-05T06:36:08;9.70;99.90
11079;DHT22;5592;49.234;7.268;2023-04-05T06:38:34;10.70;99.90
11079;DHT22;5592;49.234;7.268;2023-04-05T06:41:00;11.60;99.90
11079;DHT22;5592;49.234;7.268;2023-04-05T06:43:26;12.20;99.90
11079;DHT22;5592;49.234;7.268;2023-04-05T06:45:54;12.70;99.90
11079;DHT22;5592;49.234;7.268;2023-04-05T06:48:20;13.40;96.30
11079;DHT22;5592;49.234;7.268;2023-04-05T06:50:46;14.20;92.90
11079;DHT22;5592;49.234;7.268;2023-04-05T06:53:11;14.70;90.20
11079;DHT22;5592;49.234;7.268;2023-04-05T06:55:39;15.10;88.20
11079;DHT22;5592;49.234;7.268;2023-04-05T06:58:06;15.30;84.60
11079;DHT22;5592;49.234;7.268;2023-04-05T07:00:32;15.60;87.00
11079;DHT22;5592;49.234;7.268;2023-04-05T07:02:57;16.10;85.60
11079;DHT22;5592;49.234;7.268;2023-04-05T07:05:23;16.30;82.00
11079;DHT22;5592;49.234;7.268;2023-04-05T07:07:48;16.50;78.90
11079;DHT22;5592;49.234;7.268;2023-04-05T07:10:14;16.80;80.40
11079;DHT22;5592;49.234;7.268;2023-04-05T07:12:40;16.60;84.40
11079;DHT22;5592;49.234;7.268;2023-04-05T07:15:06;16.70;78.80
11079;DHT22;5592;49.234;7.268;2023-04-05T07:17:32;16.80;77.90
11079;DHT22;5592;49.234;7.268;2023-04-05T07:19:57;17.40;77.80
11079;DHT22;5592;49.234;7.268;2023-04-05T07:22:23;17.80;74.70
11079;DHT22;5592;49.234;7.268;2023-04-05T07:24:48;17.90;73.50
11079;DHT22;5592;49.234;7.268;2023-04-05T07:27:14;18.20;73.30
11079;DHT22;5592;49.234;7.268;2023-04-05T07:29:40;18.50;71.80
11079;DHT22;5592;49.234;7.268;2023-04-05T07:32:08;18.60;68.60
11079;DHT22;5592;49.234;7.268;2023-04-05T07:34:34;19.10;66.00
11079;DHT22;5592;49.234;7.268;2023-04-05T07:37:00;19.30;65.50
11079;DHT22;5592;49.234;7.268;2023-04-05T07:39:25;19.60;64.40
11079;DHT22;5592;49.234;7.268;2023-04-05T07:41:51;20.40;59.30
11079;DHT22;5592;49.234;7.268;2023-04-05T07:44:17;20.40;60.70
11079;DHT22;5592;49.234;7.268;2023-04-05T07:46:42;20.10;58.70
11079;DHT22;5592;49.234;7.268;2023-04-05T07:49:11;19.90;61.80
11079;DHT22;5592;49.234;7.268;2023-04-05T07:51:37;20.00;60.10
11079;DHT22;5592;49.234;7.268;2023-04-05T07:54:05;19.70;61.00
11079;DHT22;5592;49.234;7.268;2023-04-05T07:56:31;19.70;59.30
11079;DHT22;5592;49.234;7.268;2023-04-05T07:58:57;20.00;56.80
11079;DHT22;5592;49.234;7.268;2023-04-05T08:01:24;20.30;57.60
11079;DHT22;5592;49.234;7.268;2023-04-05T08:03:53;20.40;56.30
11079;DHT22;5592;49.234;7.268;2023-04-05T08:06:18;20.50;57.80
11079;DHT22;5592;49.234;7.268;2023-04-05T08:08:45;20.80;55.70
11079;DHT22;5592;49.234;7.268;2023-04-05T08:11:11;20.80;56.60
11079;DHT22;5592;49.234;7.268;2023-04-05T08:13:37;21.30;55.90
11079;DHT22;5592;49.234;7.268;2023-04-05T08:16:06;21.80;56.40
11079;DHT22;5592;49.234;7.268;2023-04-05T08:18:32;21.80;56.50
11079;DHT22;5592;49.234;7.268;2023-04-05T08:20:57;22.60;49.40
11079;DHT22;5592;49.234;7.268;2023-04-05T08:23:23;23.20;48.40
11079;DHT22;5592;49.234;7.268;2023-04-05T08:25:50;23.40;47.80
11079;DHT22;5592;49.234;7.268;2023-04-05T08:28:15;22.70;48.80
11079;DHT22;5592;49.234;7.268;2023-04-05T08:30:41;21.90;52.20
11079;DHT22;5592;49.234;7.268;2023-04-05T08:33:06;21.50;53.10
11079;DHT22;5592;49.234;7.268;2023-04-05T08:35:35;22.00;52.60
11079;DHT22;5592;49.234;7.268;2023-04-05T08:38:05;22.80;49.10
11079;DHT22;5592;49.234;7.268;2023-04-05T08:40:45;23.40;47.50
11079;DHT22;5592;49.234;7.268;2023-04-05T08:46:02;23.10;46.00
11079;DHT22;5592;49.234;7.268;2023-04-05T08:48:31;23.20;46.80
11079;DHT22;5592;49.234;7.268;2023-04-05T08:50:59;23.10;46.80
11079;DHT22;5592;49.234;7.268;2023-04-05T08:53:25;23.40;46.30
11079;DHT22;5592;49.234;7.268;2023-04-05T08:55:54;23.00;46.30
11079;DHT22;5592;49.234;7.268;2023-04-05T08:58:22;23.00;49.40
11079;DHT22;5592;49.234;7.268;2023-04-05T09:00:49;22.40;47.80
11079;DHT22;5592;49.234;7.268;2023-04-05T09:03:18;22.70;47.40
11079;DHT22;5592;49.234;7.268;2023-04-05T09:05:49;22.70;47.60
11079;DHT22;5592;49.234;7.268;2023-04-05T09:08:15;23.20;45.80
11079;DHT22;5592;49.234;7.268;2023-04-05T09:10:41;24.10;41.60
11079;DHT22;5592;49.234;7.268;2023-04-05T09:13:07;24.20;41.30
11079;DHT22;5592;49.234;7.268;2023-04-05T09:15:36;23.40;41.70
11079;DHT22;5592;49.234;7.268;2023-04-05T09:18:02;22.80;46.40
11079;DHT22;5592;49.234;7.268;2023-04-05T09:20:28;22.70;45.50
11079;DHT22;5592;49.234;7.268;2023-04-05T09:22:55;22.70;44.30
11079;DHT22;5592;49.234;7.268;2023-04-05T09:25:37;22.70;44.60
11079;DHT22;5592;49.234;7.268;2023-04-05T09:28:08;22.40;44.20
11079;DHT22;5592;49.234;7.268;2023-04-05T09:30:34;21.50;46.40
11079;DHT22;5592;49.234;7.268;2023-04-05T09:33:02;21.60;47.70
11079;DHT22;5592;49.234;7.268;2023-04-05T09:35:29;21.50;48.10
11079;DHT22;5592;49.234;7.268;2023-04-05T09:38:00;21.60;46.00
11079;DHT22;5592;49.234;7.268;2023-04-05T09:40:46;21.00;45.40
11079;DHT22;5592;49.234;7.268;2023-04-05T09:43:35;20.70;46.50
11079;DHT22;5592;49.234;7.268;2023-04-05T09:46:01;21.10;47.60
11079;DHT22;5592;49.234;7.268;2023-04-05T09:48:46;21.60;42.00
11079;DHT22;5592;49.234;7.268;2023-04-05T09:51:16;21.50;40.70
11079;DHT22;5592;49.234;7.268;2023-04-05T09:54:04;20.80;43.50
11079;DHT22;5592;49.234;7.268;2023-04-05T09:56:32;20.80;43.50
11079;DHT22;5592;49.234;7.268;2023-04-05T09:58:59;21.40;41.00
11079;DHT22;5592;49.234;7.268;2023-04-05T10:01:32;21.80;42.70
11079;DHT22;5592;49.234;7.268;2023-04-05T10:03:58;21.90;42.50
11079;DHT22;5592;49.234;7.268;2023-04-05T10:06:40;21.50;43.30
11079;DHT22;5592;49.234;7.268;2023-04-05T10:09:07;21.10;44.00
11079;DHT22;5592;49.234;7.268;2023-04-05T10:11:33;21.70;42.30
11079;DHT22;5592;49.234;7.268;2023-04-05T10:14:07;21.70;43.80
11079;DHT22;5592;49.234;7.268;2023-04-05T10:16:44;21.70;42.20
11079;DHT22;5592;49.234;7.268;2023-04-05T10:21:59;21.00;40.80
11079;DHT22;5592;49.234;7.268;2023-04-05T10:27:06;21.10;40.60
11079;DHT22;5592;49.234;7.268;2023-04-05T10:29:49;20.30;42.60
11079;DHT22;5592;49.234;7.268;2023-04-05T10:32:29;20.70;40.80
11079;DHT22;5592;49.234;7.268;2023-04-05T10:34:59;20.70;42.40
11079;DHT22;5592;49.234;7.268;2023-04-05T10:40:13;19.00;43.60
11079;DHT22;5592;49.234;7.268;2023-04-05T10:42:44;19.20;47.30
11079;DHT22;5592;49.234;7.268;2023-04-05T10:45:12;19.50;42.10
11079;DHT22;5592;49.234;7.268;2023-04-05T10:47:58;19.70;42.10
11079;DHT22;5592;49.234;7.268;2023-04-05T10:50:24;19.90;40.40
11079;DHT22;5592;49.234;7.268;2023-04-05T10:52:51;18.80;40.00
11079;DHT22;5592;49.234;7.268;2023-04-05T10:55:17;17.60;39.60
11079;DHT22;5592;49.234;7.268;2023-04-05T10:57:44;17.00;42.80
11079;DHT22;5592;49.234;7.268;2023-04-05T11:00:11;17.20;42.60
11079;DHT22;5592;49.234;7.268;2023-04-05T11:02:38;16.40;42.40
11079;DHT22;5592;49.234;7.268;2023-04-05T11:05:04;16.80;44.40
11079;DHT22;5592;49.234;7.268;2023-04-05T11:07:43;17.50;44.20
11079;DHT22;5592;49.234;7.268;2023-04-05T11:10:17;17.20;45.40
11079;DHT22;5592;49.234;7.268;2023-04-05T11:13:01;17.00;47.60
11079;DHT22;5592;49.234;7.268;2023-04-05T11:18:06;17.00;49.80
11079;DHT22;5592;49.234;7.268;2023-04-05T11:20:53;17.20;49.00
11079;DHT22;5592;49.234;7.268;2023-04-05T11:23:29;17.40;47.10
11079;DHT22;5592;49.234;7.268;2023-04-05T11:26:05;17.90;45.10
11079;DHT22;5592;49.234;7.268;2023-04-05T11:28:35;17.40;43.90
11079;DHT22;5592;49.234;7.268;2023-04-05T11:31:16;16.60;45.30
11079;DHT22;5592;49.234;7.268;2023-04-05T11:36:43;16.10;44.00
11079;DHT22;5592;49.234;7.268;2023-04-05T11:41:58;15.00;49.50
11079;DHT22;5592;49.234;7.268;2023-04-05T11:44:24;15.00;49.50
11079;DHT22;5592;49.234;7.268;2023-04-05T11:46:51;14.90;50.60
11079;DHT22;5592;49.234;7.268;2023-04-05T11:49:16;14.80;50.70
11079;DHT22;5592;49.234;7.268;2023-04-05T11:51:42;14.70;50.00
11079;DHT22;5592;49.234;7.268;2023-04-05T11:54:09;14.60;49.10
11079;DHT22;5592;49.234;7.268;2023-04-05T11:56:34;14.30;47.60
11079;DHT22;5592;49.234;7.268;2023-04-05T11:59:00;14.30;50.00
11079;DHT22;5592;49.234;7.268;2023-04-05T12:01:26;14.20;47.40
11079;DHT22;5592;49.234;7.268;2023-04-05T12:03:52;14.20;44.80
11079;DHT22;5592;49.234;7.268;2023-04-05T12:06:21;14.00;43.10
11079;DHT22;5592;49.234;7.268;2023-04-05T12:08:47;13.80;43.60
11079;DHT22;5592;49.234;7.268;2023-04-05T12:11:30;13.40;43.20
11079;DHT22;5592;49.234;7.268;2023-04-05T12:13:58;12.90;45.80
11079;DHT22;5592;49.234;7.268;2023-04-05T12:16:24;12.80;45.70
11079;DHT22;5592;49.234;7.268;2023-04-05T12:18:54;12.70;47.30
11079;DHT22;5592;49.234;7.268;2023-04-05T12:21:20;12.90;47.50
11079;DHT22;5592;49.234;7.268;2023-04-05T12:23:46;13.20;45.60
11079;DHT22;5592;49.234;7.268;2023-04-05T12:26:13;13.10;44.10
11079;DHT22;5592;49.234;7.268;2023-04-05T12:28:52;12.80;44.40
11079;DHT22;5592;49.234;7.268;2023-04-05T12:31:40;12.40;46.80
11079;DHT22;5592;49.234;7.268;2023-04-05T12:34:07;12.40;45.00
11079;DHT22;5592;49.234;7.268;2023-04-05T12:36:33;12.50;45.40
11079;DHT22;5592;49.234;7.268;2023-04-05T12:39:00;12.60;46.10
11079;DHT22;5592;49.234;7.268;2023-04-05T12:41:35;12.40;46.50
11079;DHT22;5592;49.234;7.268;2023-04-05T12:44:07;12.50;46.60
11079;DHT22;5592;49.234;7.268;2023-04-05T12:46:43;12.60;45.70
11079;DHT22;5592;49.234;7.268;2023-04-05T12:49:14;12.30;43.90
11079;DHT22;5592;49.234;7.268;2023-04-05T12:51:44;12.40;43.80
11079;DHT22;5592;49.234;7.268;2023-04-05T12:54:13;12.10;42.90
11079;DHT22;5592;49.234;7.268;2023-04-05T12:56:43;11.90;43.90
11079;DHT22;5592;49.234;7.268;2023-04-05T12:59:08;11.80;44.90
11079;DHT22;5592;49.234;7.268;2023-04-05T13:01:34;11.90;45.40
11079;DHT22;5592;49.234;7.268;2023-04-05T13:04:00;12.00;45.00
11079;DHT22;5592;49.234;7.268;2023-04-05T13:06:26;11.90;45.30
11079;DHT22;5592;49.234;7.268;2023-04-05T13:08:52;11.60;44.20
11079;DHT22;5592;49.234;7.268;2023-04-05T13:11:50;11.30;44.40
11079;DHT22;5592;49.234;7.268;2023-04-05T13:14:16;11.50;45.30
11079;DHT22;5592;49.234;7.268;2023-04-05T13:16:42;11.60;45.50
11079;DHT22;5592;49.234;7.268;2023-04-05T13:19:07;11.60;49.40
11079;DHT22;5592;49.234;7.268;2023-04-05T13:21:33;11.70;47.80
11079;DHT22;5592;49.234;7.268;2023-04-05T13:23:58;11.70;45.50
11079;DHT22;5592;49.234;7.268;2023-04-05T13:26:24;11.60;45.70
11079;DHT22;5592;49.234;7.268;2023-04-05T13:28:50;11.40;44.70
11079;DHT22;5592;49.234;7.268;2023-04-05T13:31:16;11.30;45.30
11079;DHT22;5592;49.234;7.268;2023-04-05T13:33:41;11.30;45.20
11079;DHT22;5592;49.234;7.268;2023-04-05T13:36:07;11.30;45.00
11079;DHT22;5592;49.234;7.268;2023-04-05T13:38:33;11.00;43.50
11079;DHT22;5592;49.234;7.268;2023-04-05T13:40:58;11.10;43.90
11079;DHT22;5592;49.234;7.268;2023-04-05T13:43:24;11.00;44.70
11079;DHT22;5592;49.234;7.268;2023-04-05T13:45:52;10.90;44.90
11079;DHT22;5592;49.234;7.268;2023-04-05T13:48:17;10.80;45.30
11079;DHT22;5592;49.234;7.268;2023-04-05T13:50:43;10.80;46.80
11079;DHT22;5592;49.234;7.268;2023-04-05T13:53:08;11.00;46.60
11079;DHT22;5592;49.234;7.268;2023-04-05T13:55:34;11.00;46.30
11079;DHT22;5592;49.234;7.268;2023-04-05T13:57:59;11.00;50.10
11079;DHT22;5592;49.234;7.268;2023-04-05T14:00:26;11.00;52.50
11079;DHT22;5592;49.234;7.268;2023-04-05T14:02:51;11.00;50.40
11079;DHT22;5592;49.234;7.268;2023-04-05T14:05:17;11.00;48.70
11079;DHT22;5592;49.234;7.268;2023-04-05T14:07:43;10.90;51.30
11079;DHT22;5592;49.234;7.268;2023-04-05T14:10:09;10.80;50.50
11079;DHT22;5592;49.234;7.268;2023-04-05T14:12:35;10.70;49.10
11079;DHT22;5592;49.234;7.268;2023-04-05T14:15:01;10.80;49.60
11079;DHT22;5592;49.234;7.268;2023-04-05T14:17:27;10.70;51.30
11079;DHT22;5592;49.234;7.268;2023-04-05T14:19:52;10.70;49.80
11079;DHT22;5592;49.234;7.268;2023-04-05T14:22:18;10.60;49.90
11079;DHT22;5592;49.234;7.268;2023-04-05T14:24:45;10.80;50.00
11079;DHT22;5592;49.234;7.268;2023-04-05T14:27:11;10.80;49.50
11079;DHT22;5592;49.234;7.268;2023-04-05T14:29:36;11.00;48.50
11079;DHT22;5592;49.234;7.268;2023-04-05T14:32:02;11.00;49.20
11079;DHT22;5592;49.234;7.268;2023-04-05T14:34:27;11.00;49.80
11079;DHT22;5592;49.234;7.268;2023-04-05T14:36:53;10.80;49.00
11079;DHT22;5592;49.234;7.268;2023-04-05T14:39:22;10.70;48.70
11079;DHT22;5592;49.234;7.268;2023-04-05T14:41:48;10.70;51.50
11079;DHT22;5592;49.234;7.268;2023-04-05T14:44:16;10.70;50.10
11079;DHT22;5592;49.234;7.268;2023-04-05T14:46:42;10.80;50.40
11079;DHT22;5592;49.234;7.268;2023-04-05T14:49:08;10.80;48.80
11079;DHT22;5592;49.234;7.268;2023-04-05T14:51:33;10.60;48.60
11079;DHT22;5592;49.234;7.268;2023-04-05T14:53:59;10.70;49.60
11079;DHT22;5592;49.234;7.268;2023-04-05T14:56:25;10.80;49.80
11079;DHT22;5592;49.234;7.268;2023-04-05T14:58:51;10.70;48.80
11079;DHT22;5592;49.234;7.268;2023-04-05T15:01:16;10.70;49.40
11079;DHT22;5592;49.234;7.268;2023-04-05T15:03:42;10.70;49.80
11079;DHT22;5592;49.234;7.268;2023-04-05T15:06:08;10.80;48.40
11079;DHT22;5592;49.234;7.268;2023-04-05T15:08:33;10.80;48.80
11079;DHT22;5592;49.234;7.268;2023-04-05T15:10:59;10.70;48.70
11079;DHT22;5592;49.234;7.268;2023-04-05T15:13:31;10.70;49.10
11079;DHT22;5592;49.234;7.268;2023-04-05T15:15:58;10.60;49.80
11079;DHT22;5592;49.234;7.268;2023-04-05T15:18:23;10.50;50.00
11079;DHT22;5592;49.234;7.268;2023-04-05T15:20:49;10.50;51.10
11079;DHT22;5592;49.234;7.268;2023-04-05T15:23:15;10.60;50.90
11079;DHT22;5592;49.234;7.268;2023-04-05T15:25:41;10.60;49.70
11079;DHT22;5592;49.234;7.268;2023-04-05T15:28:06;10.60;49.00
11079;DHT22;5592;49.234;7.268;2023-04-05T15:30:32;10.60;49.30
11079;DHT22;5592;49.234;7.268;2023-04-05T15:32:57;10.60;50.90
11079;DHT22;5592;49.234;7.268;2023-04-05T15:35:23;10.50;49.50
11079;DHT22;5592;49.234;7.268;2023-04-05T15:37:49;10.60;49.60
11079;DHT22;5592;49.234;7.268;2023-04-05T15:40:14;10.60;49.50
11079;DHT22;5592;49.234;7.268;2023-04-05T15:42:40;10.50;48.70
11079;DHT22;5592;49.234;7.268;2023-04-05T15:45:06;10.50;48.50
11079;DHT22;5592;49.234;7.268;2023-04-05T15:47:32;10.40;48.50
11079;DHT22;5592;49.234;7.268;2023-04-05T15:49:58;10.40;49.40
11079;DHT22;5592;49.234;7.268;2023-04-05T15:52:23;10.40;50.50
11079;DHT22;5592;49.234;7.268;2023-04-05T15:54:49;10.40;49.40
11079;DHT22;5592;49.234;7.268;2023-04-05T15:57:15;10.30;50.30
11079;DHT22;5592;49.234;7.268;2023-04-05T15:59:40;10.30;49.30
11079;DHT22;5592;49.234;7.268;2023-04-05T16:02:07;10.20;50.40
11079;DHT22;5592;49.234;7.268;2023-04-05T16:04:33;10.30;50.70
11079;DHT22;5592;49.234;7.268;2023-04-05T16:06:59;10.30;50.20
11079;DHT22;5592;49.234;7.268;2023-04-05T16:09:24;10.30;49.40
11079;DHT22;5592;49.234;7.268;2023-04-05T16:11:50;10.30;49.30
11079;DHT22;5592;49.234;7.268;2023-04-05T16:14:16;10.30;49.70
11079;DHT22;5592;49.234;7.268;2023-04-05T16:16:41;10.20;49.90
11079;DHT22;5592;49.234;7.268;2023-04-05T16:19:07;10.10;49.30
11079;DHT22;5592;49.234;7.268;2023-04-05T16:21:33;10.00;49.50